Time;durP1;ratioP1;P1;durP2;ratioP2;P2;SDS_P1;SDS_P2;PMS_P1;PMS_P2;Temp;Humidity;BMP_temperature;BMP_pressure;BME280_temperature;BME280_humidity;BME280_pressure;Samples;Min_cycle;Max_cycle;Signal;HPM_P1;HPM_P2
2020/12/14 00:02:11;;;;;;;6.00;4.93;;;11.00;56.80;;;;;;5009077;28;20437;-41
2020/12/14 00:04:38;;;;;;;5.10;4.60;;;10.90;56.90;;;;;;5009718;28;20202;-41
2020/12/14 00:07:04;;;;;;;6.33;5.00;;;10.80;57.10;;;;;;5004258;28;20430;-41
2020/12/14 00:09:31;;;;;;;6.03;5.07;;;10.70;57.30;;;;;;5008397;28;20488;-41
2020/12/14 00:11:58;;;;;;;6.87;5.60;;;10.70;57.40;;;;;;5009369;28;20511;-41
2020/12/14 00:14:23;;;;;;;5.83;5.23;;;10.70;57.30;;;;;;5009788;28;20547;-41
2020/12/14 00:16:49;;;;;;;7.00;5.87;;;10.80;57.20;;;;;;5009379;28;20918;-41
2020/12/14 00:19:14;;;;;;;6.47;5.60;;;10.70;57.20;;;;;;5010581;28;20194;-41
2020/12/14 00:21:40;;;;;;;9.20;6.10;;;10.60;57.40;;;;;;5011682;28;20198;-41
2020/12/14 00:24:05;;;;;;;7.60;6.03;;;10.50;57.60;;;;;;5013945;28;20198;-41
2020/12/14 00:26:31;;;;;;;8.67;6.40;;;10.30;57.80;;;;;;5013253;28;20194;-41
2020/12/14 00:28:56;;;;;;;8.43;5.40;;;10.10;58.00;;;;;;5014084;28;20289;-41
2020/12/14 00:31:22;;;;;;;5.90;4.80;;;9.70;59.80;;;;;;5012318;28;20268;-41
2020/12/14 00:33:47;;;;;;;6.70;5.00;;;9.50;60.50;;;;;;5022669;28;20197;-41
2020/12/14 00:36:13;;;;;;;5.83;4.77;;;9.30;61.60;;;;;;5017775;28;20202;-41
2020/12/14 00:38:39;;;;;;;5.60;4.47;;;8.90;63.20;;;;;;5013412;28;20202;-41
2020/12/14 00:41:06;;;;;;;6.27;5.17;;;8.80;63.60;;;;;;5012983;28;20209;-41
2020/12/14 00:43:32;;;;;;;6.10;5.37;;;8.60;63.80;;;;;;5012601;28;20435;-41
2020/12/14 00:45:58;;;;;;;6.07;5.47;;;8.40;65.00;;;;;;5012058;28;20425;-41
2020/12/14 00:48:24;;;;;;;5.63;5.03;;;8.30;65.50;;;;;;5000801;28;20482;-41
2020/12/14 00:50:49;;;;;;;6.63;5.73;;;8.20;66.00;;;;;;5011592;28;20300;-41
2020/12/14 00:53:15;;;;;;;7.33;6.43;;;8.30;66.00;;;;;;5013400;28;20200;-41
2020/12/14 00:55:40;;;;;;;7.27;5.60;;;8.40;65.90;;;;;;5013194;28;20190;-41
2020/12/14 00:58:06;;;;;;;7.70;4.53;;;8.40;65.60;;;;;;5012857;28;20277;-41
2020/12/14 01:00:32;;;;;;;7.50;6.50;;;8.60;64.90;;;;;;5012484;28;20198;-41
2020/12/14 01:02:58;;;;;;;5.70;5.10;;;8.70;64.50;;;;;;5010257;28;20209;-41
2020/12/14 01:05:23;;;;;;;6.23;5.20;;;8.90;63.90;;;;;;5012202;28;20444;-41
2020/12/14 01:07:49;;;;;;;6.00;5.10;;;9.00;63.10;;;;;;5012350;28;20571;-41
2020/12/14 01:10:14;;;;;;;5.77;5.00;;;9.00;62.90;;;;;;5012762;28;20229;-41
2020/12/14 01:12:40;;;;;;;5.30;4.80;;;8.80;63.00;;;;;;5010014;28;20225;-41
2020/12/14 01:15:06;;;;;;;6.40;5.27;;;8.80;63.20;;;;;;5011702;28;20187;-41
2020/12/14 01:17:32;;;;;;;5.37;4.73;;;8.90;63.10;;;;;;5004348;28;20198;-41
2020/12/14 01:19:58;;;;;;;5.03;4.43;;;9.00;63.00;;;;;;5012937;28;20528;-41
2020/12/14 01:22:24;;;;;;;5.43;4.50;;;8.90;63.00;;;;;;5011656;28;20444;-41
2020/12/14 01:24:50;;;;;;;5.90;4.90;;;8.80;62.90;;;;;;5012760;28;20433;-41
2020/12/14 01:27:16;;;;;;;6.03;4.80;;;8.80;63.00;;;;;;5009794;28;20429;-41
2020/12/14 01:29:41;;;;;;;6.53;5.40;;;8.90;62.70;;;;;;5010728;28;20240;-41
2020/12/14 01:32:07;;;;;;;7.30;5.60;;;8.80;62.80;;;;;;5010302;28;20271;-41
2020/12/14 01:34:33;;;;;;;5.53;4.93;;;8.80;62.50;;;;;;5012712;28;20198;-41
2020/12/14 01:36:58;;;;;;;6.47;5.67;;;8.70;62.90;;;;;;5012039;28;20206;-41
2020/12/14 01:39:24;;;;;;;6.73;5.40;;;8.50;63.30;;;;;;5011687;28;20325;-41
2020/12/14 01:41:50;;;;;;;8.73;5.93;;;8.40;64.00;;;;;;5011190;28;20229;-41
2020/12/14 01:44:16;;;;;;;8.43;5.77;;;8.10;64.90;;;;;;5012507;28;20705;-41
2020/12/14 01:46:44;;;;;;;7.30;5.80;;;8.00;65.10;;;;;;5011173;28;20571;-42
2020/12/14 01:49:11;;;;;;;8.67;6.03;;;7.70;66.30;;;;;;5011044;28;20237;-41
2020/12/14 01:51:37;;;;;;;7.27;5.93;;;7.70;67.10;;;;;;5010924;28;20441;-41
2020/12/14 01:54:15;;;;;;;6.93;5.77;;;7.70;67.00;;;;;;5011653;28;20928;-41
2020/12/14 01:56:41;;;;;;;6.87;6.13;;;7.80;66.90;;;;;;5010519;28;20436;-40
2020/12/14 01:59:07;;;;;;;7.43;6.00;;;7.90;67.10;;;;;;5011604;28;20935;-41
2020/12/14 02:01:32;;;;;;;7.90;6.17;;;8.20;66.00;;;;;;5010963;28;20657;-41
2020/12/14 02:03:58;;;;;;;9.00;6.00;;;8.20;65.30;;;;;;5011823;28;20437;-42
2020/12/14 02:06:23;;;;;;;8.27;6.43;;;8.20;65.30;;;;;;5011164;28;20208;-41
2020/12/14 02:08:49;;;;;;;10.17;7.00;;;8.50;65.10;;;;;;5011052;28;20256;-41
2020/12/14 02:11:15;;;;;;;9.30;6.53;;;8.60;63.60;;;;;;5010913;28;20570;-41
2020/12/14 02:13:40;;;;;;;8.13;5.80;;;8.50;63.70;;;;;;5012270;28;20557;-41
2020/12/14 02:16:06;;;;;;;8.70;6.13;;;8.20;64.20;;;;;;5011150;28;20433;-41
2020/12/14 02:18:32;;;;;;;8.03;6.17;;;8.10;64.70;;;;;;5011953;28;20217;-41
2020/12/14 02:20:57;;;;;;;9.00;6.17;;;8.00;65.30;;;;;;5010585;28;20577;-41
2020/12/14 02:23:23;;;;;;;7.07;6.13;;;8.00;65.70;;;;;;5010678;28;20198;-41
2020/12/14 02:25:48;;;;;;;6.73;5.83;;;8.00;65.60;;;;;;5010073;28;20194;-41
2020/12/14 02:28:14;;;;;;;9.80;5.77;;;7.90;65.80;;;;;;5010809;28;20205;-41
2020/12/14 02:30:39;;;;;;;8.83;6.80;;;7.70;66.50;;;;;;5010621;28;20284;-41
2020/12/14 02:33:05;;;;;;;7.33;5.63;;;8.00;65.90;;;;;;5010609;28;20650;-41
2020/12/14 02:35:30;;;;;;;9.57;6.20;;;8.10;65.20;;;;;;5011558;28;20208;-41
2020/12/14 02:37:56;;;;;;;7.40;6.20;;;8.40;64.80;;;;;;5009755;28;20190;-41
2020/12/14 02:40:22;;;;;;;5.50;4.90;;;8.70;63.60;;;;;;5009658;28;20611;-41
2020/12/14 02:42:47;;;;;;;7.60;5.77;;;8.80;62.50;;;;;;5021799;28;20674;-41
2020/12/14 02:45:13;;;;;;;7.90;5.70;;;8.80;62.30;;;;;;5010458;28;20208;-41
2020/12/14 02:47:39;;;;;;;8.20;6.03;;;8.90;62.10;;;;;;5010898;28;20202;-41
2020/12/14 02:50:05;;;;;;;6.47;5.57;;;9.10;61.60;;;;;;5010507;28;20337;-41
2020/12/14 02:52:30;;;;;;;8.40;5.83;;;9.00;60.30;;;;;;5008672;28;20209;-41
2020/12/14 02:54:56;;;;;;;7.40;6.10;;;8.80;60.80;;;;;;5010671;28;20516;-41
2020/12/14 02:57:21;;;;;;;6.50;5.50;;;8.90;61.40;;;;;;5009823;28;20247;-41
2020/12/14 02:59:47;;;;;;;6.20;5.20;;;9.00;61.00;;;;;;5011273;28;20239;-41
2020/12/14 03:02:12;;;;;;;5.43;4.93;;;9.00;60.60;;;;;;5010651;28;20552;-41
2020/12/14 03:04:38;;;;;;;7.80;6.30;;;8.90;60.60;;;;;;5010683;28;20697;-41
2020/12/14 03:07:04;;;;;;;6.30;5.00;;;8.70;60.90;;;;;;5009127;28;20202;-41
2020/12/14 03:09:29;;;;;;;6.50;5.37;;;8.70;61.70;;;;;;5010564;28;20237;-41
2020/12/14 03:11:55;;;;;;;5.17;4.67;;;8.70;62.50;;;;;;5009880;28;20190;-41
2020/12/14 03:14:21;;;;;;;6.67;5.10;;;8.70;61.60;;;;;;5010482;28;20221;-41
2020/12/14 03:16:50;;;;;;;5.30;4.60;;;8.70;61.40;;;;;;5010213;28;20194;-41
2020/12/14 03:19:17;;;;;;;7.03;5.87;;;8.70;61.50;;;;;;5007160;28;20271;-41
2020/12/14 03:21:43;;;;;;;9.40;5.13;;;8.80;61.30;;;;;;5007534;28;20464;-41
2020/12/14 03:24:09;;;;;;;7.67;5.90;;;8.70;60.70;;;;;;5010658;28;20445;-42
2020/12/14 03:26:35;;;;;;;6.77;5.47;;;8.50;61.10;;;;;;5009700;28;20448;-41
2020/12/14 03:29:00;;;;;;;7.27;4.80;;;8.60;61.40;;;;;;5010443;28;20232;-41
2020/12/14 03:31:26;;;;;;;6.73;6.10;;;8.60;60.60;;;;;;5009962;28;20445;-41
2020/12/14 03:33:53;;;;;;;7.90;6.00;;;8.40;60.80;;;;;;5009848;28;20537;-41
2020/12/14 03:36:22;;;;;;;5.77;5.10;;;8.50;60.90;;;;;;5009886;28;20592;-41
2020/12/14 03:38:53;;;;;;;7.80;5.40;;;8.40;60.60;;;;;;5010725;28;21109;-41
2020/12/14 03:41:20;;;;;;;6.37;4.73;;;8.50;60.60;;;;;;5010160;28;20443;-41
2020/12/14 03:43:45;;;;;;;5.27;4.47;;;8.40;60.70;;;;;;5009937;28;20452;-41
2020/12/14 03:46:24;;;;;;;4.77;4.07;;;8.50;60.80;;;;;;5009241;28;20548;-41
2020/12/14 03:48:55;;;;;;;7.40;5.20;;;8.60;61.00;;;;;;5002945;28;20245;-41
2020/12/14 03:51:22;;;;;;;5.33;4.10;;;8.70;60.40;;;;;;5009055;28;20499;-41
2020/12/14 03:53:49;;;;;;;6.50;4.53;;;8.80;60.00;;;;;;5009932;28;20470;-41
2020/12/14 03:56:22;;;;;;;4.90;4.40;;;8.80;59.80;;;;;;5012194;28;20440;-41
2020/12/14 03:58:47;;;;;;;4.70;4.30;;;8.80;59.80;;;;;;5013623;28;20979;-41
2020/12/14 04:01:18;;;;;;;7.30;4.50;;;8.90;59.70;;;;;;5012144;28;20436;-41
2020/12/14 04:03:43;;;;;;;5.60;4.57;;;8.90;59.50;;;;;;5014518;28;20201;-41
2020/12/14 04:06:09;;;;;;;5.37;3.80;;;9.00;59.50;;;;;;5013418;28;21293;-41
2020/12/14 04:08:34;;;;;;;5.00;3.70;;;8.90;59.60;;;;;;5013228;28;20551;-41
2020/12/14 04:11:00;;;;;;;4.43;3.47;;;8.80;59.60;;;;;;5013123;28;20222;-41
2020/12/14 04:13:26;;;;;;;5.83;3.90;;;8.70;59.80;;;;;;5012455;28;20647;-41
2020/12/14 04:15:51;;;;;;;5.20;4.07;;;8.50;60.40;;;;;;5011707;28;20680;-41
2020/12/14 04:18:17;;;;;;;4.97;3.90;;;8.60;60.60;;;;;;5012330;28;20256;-41
2020/12/14 04:20:42;;;;;;;5.77;3.67;;;8.40;61.10;;;;;;5014123;28;20202;-41
2020/12/14 04:23:08;;;;;;;3.90;3.50;;;8.30;61.50;;;;;;5012708;28;20193;-41
2020/12/14 04:25:33;;;;;;;5.77;4.10;;;8.30;61.70;;;;;;5014532;28;20248;-41
2020/12/14 04:28:00;;;;;;;4.43;4.03;;;8.30;61.40;;;;;;5012240;28;20198;-41
2020/12/14 04:30:27;;;;;;;5.07;3.83;;;8.30;61.20;;;;;;5012613;28;20226;-39
2020/12/14 04:32:53;;;;;;;4.33;3.70;;;8.50;61.30;;;;;;5013351;28;20444;-39
2020/12/14 04:35:18;;;;;;;4.70;4.23;;;8.40;60.90;;;;;;5013351;28;20436;-39
2020/12/14 04:37:44;;;;;;;4.73;3.90;;;8.50;60.80;;;;;;5012238;28;20186;-39
2020/12/14 04:40:10;;;;;;;3.83;3.43;;;8.50;60.70;;;;;;5012870;28;20201;-39
2020/12/14 04:42:38;;;;;;;3.97;3.47;;;8.60;60.40;;;;;;5012292;28;20198;-39
2020/12/14 04:45:04;;;;;;;3.37;3.07;;;8.70;60.20;;;;;;5011968;28;20538;-39
2020/12/14 04:47:30;;;;;;;4.30;3.63;;;8.70;60.00;;;;;;5008528;28;20491;-39
2020/12/14 04:49:56;;;;;;;4.40;4.00;;;8.90;59.80;;;;;;5012724;28;20990;-39
2020/12/14 04:52:24;;;;;;;4.60;3.83;;;9.00;59.50;;;;;;5012937;28;20202;-39
2020/12/14 04:54:50;;;;;;;5.20;4.33;;;9.00;59.10;;;;;;5013180;28;20479;-39
2020/12/14 04:57:20;;;;;;;5.47;3.87;;;9.00;58.90;;;;;;5012297;28;20433;-39
2020/12/14 04:59:46;;;;;;;4.40;4.00;;;8.90;59.00;;;;;;5012475;28;20455;-39
2020/12/14 05:02:11;;;;;;;5.60;3.83;;;8.90;58.80;;;;;;5011794;28;20429;-39
2020/12/14 05:04:38;;;;;;;4.40;4.00;;;8.80;58.90;;;;;;5012721;28;20229;-39
2020/12/14 05:07:04;;;;;;;3.97;3.57;;;8.70;59.10;;;;;;5012560;28;20186;-39
2020/12/14 05:09:30;;;;;;;4.30;3.57;;;8.70;59.20;;;;;;5012692;28;20488;-39
2020/12/14 05:11:56;;;;;;;4.20;3.63;;;8.60;59.40;;;;;;5010698;28;20929;-39
2020/12/14 05:14:23;;;;;;;5.20;4.17;;;8.70;59.30;;;;;;5012817;28;20208;-39
2020/12/14 05:16:50;;;;;;;5.60;4.83;;;8.80;59.00;;;;;;5011675;28;20260;-40
2020/12/14 05:19:20;;;;;;;5.30;4.80;;;8.70;58.50;;;;;;5012666;28;20511;-39
2020/12/14 05:21:48;;;;;;;7.40;5.07;;;8.60;58.30;;;;;;5017585;28;20441;-39
2020/12/14 05:24:25;;;;;;;12.60;7.20;;;8.60;58.60;;;;;;5009882;28;20433;-39
2020/12/14 05:26:51;;;;;;;9.10;7.13;;;8.70;58.80;;;;;;5012091;28;20437;-39
2020/12/14 05:29:28;;;;;;;9.80;6.33;;;8.70;58.50;;;;;;5012684;28;20501;-39
2020/12/14 05:32:11;;;;;;;8.53;6.17;;;8.70;58.20;;;;;;5002193;28;20974;-39
2020/12/14 05:34:41;;;;;;;9.53;5.83;;;8.80;58.10;;;;;;5010271;28;20445;-40
2020/12/14 05:37:09;;;;;;;9.70;6.50;;;8.70;57.90;;;;;;5012292;28;20467;-39
2020/12/14 05:39:36;;;;;;;5.17;4.67;;;8.60;57.80;;;;;;5010347;28;20433;-40
2020/12/14 05:42:19;;;;;;;11.53;4.90;;;8.50;59.10;;;;;;5011503;28;20436;-40
2020/12/14 05:44:47;;;;;;;8.67;5.30;;;8.80;62.40;;;;;;5009392;28;20440;-40
2020/12/14 05:47:31;;;;;;;5.40;4.13;;;9.10;63.10;;;;;;5009660;28;20532;-40
2020/12/14 05:50:06;;;;;;;6.73;4.47;;;9.40;61.80;;;;;;5009019;28;20896;-40
2020/12/14 05:52:35;;;;;;;5.00;3.90;;;9.50;60.90;;;;;;5007076;28;20455;-40
2020/12/14 05:55:01;;;;;;;4.07;3.63;;;9.80;60.20;;;;;;5010844;28;21120;-40
2020/12/14 05:57:35;;;;;;;5.13;3.80;;;10.00;58.00;;;;;;5010964;28;20444;-40
2020/12/14 06:00:11;;;;;;;5.40;4.23;;;10.00;57.00;;;;;;5007897;28;20432;-40
2020/12/14 06:02:38;;;;;;;5.30;4.50;;;10.00;56.20;;;;;;5011996;28;20424;-40
2020/12/14 06:05:07;;;;;;;6.10;4.37;;;10.10;56.30;;;;;;4998242;28;20438;-40
2020/12/14 06:07:34;;;;;;;4.13;3.70;;;10.20;56.00;;;;;;5008128;28;20520;-40
2020/12/14 06:10:08;;;;;;;4.37;3.83;;;10.20;55.30;;;;;;5010120;28;20853;-40
2020/12/14 06:12:36;;;;;;;5.60;5.00;;;10.10;55.50;;;;;;5010043;28;20440;-40
2020/12/14 06:15:14;;;;;;;4.47;3.63;;;10.10;55.40;;;;;;5010808;28;20499;-40
2020/12/14 06:17:40;;;;;;;3.90;3.37;;;9.80;56.50;;;;;;5011526;28;20873;-40
2020/12/14 06:20:08;;;;;;;5.33;4.30;;;9.80;56.80;;;;;;5009961;28;20449;-43
2020/12/14 06:22:34;;;;;;;6.70;4.73;;;10.00;55.50;;;;;;5009870;28;20444;-40
2020/12/14 06:25:03;;;;;;;4.50;4.10;;;10.10;55.10;;;;;;5010935;28;20998;-40
2020/12/14 06:27:29;;;;;;;6.30;5.03;;;10.20;54.40;;;;;;5010438;28;20512;-40
2020/12/14 06:29:55;;;;;;;6.33;4.70;;;10.20;53.90;;;;;;5014252;28;20570;-40
2020/12/14 06:32:34;;;;;;;4.83;4.43;;;10.20;53.60;;;;;;5010534;28;20460;-40
2020/12/14 06:35:00;;;;;;;6.57;5.70;;;10.20;53.60;;;;;;5010121;28;20444;-40
2020/12/14 06:37:55;;;;;;;7.57;5.80;;;10.20;53.40;;;;;;5011350;28;20433;-40
2020/12/14 06:40:20;;;;;;;7.17;6.07;;;10.30;53.70;;;;;;5011422;28;20197;-40
2020/12/14 06:42:47;;;;;;;5.83;5.00;;;10.30;53.40;;;;;;5011418;28;20487;-40
2020/12/14 06:45:15;;;;;;;8.20;5.60;;;10.40;53.40;;;;;;5012213;28;20198;-40
2020/12/14 06:47:46;;;;;;;4.60;4.20;;;10.50;53.20;;;;;;5004335;28;20979;-41
2020/12/14 06:50:32;;;;;;;4.97;4.20;;;10.40;52.90;;;;;;5011330;28;20575;-40
2020/12/14 06:53:01;;;;;;;5.00;4.50;;;10.30;53.20;;;;;;5011043;28;20932;-40
2020/12/14 06:55:44;;;;;;;5.90;5.40;;;10.30;53.90;;;;;;5011607;28;20501;-40
2020/12/14 06:58:28;;;;;;;5.87;5.27;;;10.30;53.30;;;;;;5009671;28;20980;-40
2020/12/14 07:00:54;;;;;;;5.97;5.37;;;10.40;53.10;;;;;;5009762;28;20951;-40
2020/12/14 07:03:30;;;;;;;6.07;5.00;;;10.30;53.30;;;;;;5009005;28;20445;-40
2020/12/14 07:06:00;;;;;;;6.80;5.33;;;10.40;53.10;;;;;;5011070;28;20534;-39
2020/12/14 07:08:38;;;;;;;5.20;4.70;;;10.40;52.70;;;;;;5011357;28;20425;-40
2020/12/14 07:11:15;;;;;;;5.33;4.83;;;10.40;52.60;;;;;;5010321;28;20520;-40
2020/12/14 07:13:42;;;;;;;5.33;4.73;;;10.30;53.10;;;;;;5011581;28;20464;-40
2020/12/14 07:16:09;;;;;;;6.50;5.33;;;10.20;53.10;;;;;;5011009;28;20421;-40
2020/12/14 07:18:38;;;;;;;7.60;6.37;;;10.30;53.00;;;;;;5011364;28;20463;-40
2020/12/14 07:21:12;;;;;;;6.00;5.40;;;10.10;53.00;;;;;;5010203;28;20440;-40
2020/12/14 07:23:40;;;;;;;8.00;4.67;;;10.00;53.10;;;;;;5011400;28;20451;-40
2020/12/14 07:26:07;;;;;;;4.23;3.83;;;10.00;53.70;;;;;;5010621;28;20994;-40
2020/12/14 07:28:34;;;;;;;5.87;5.10;;;10.20;54.00;;;;;;5011305;28;20421;-40
2020/12/14 07:31:05;;;;;;;5.40;4.20;;;10.90;53.00;;;;;;5007586;28;20992;-40
2020/12/14 07:33:30;;;;;;;5.13;4.10;;;11.70;50.90;;;;;;5010958;28;20421;-40
2020/12/14 07:36:04;;;;;;;5.63;4.50;;;13.40;47.20;;;;;;5010536;28;20483;-40
2020/12/14 07:38:29;;;;;;;5.53;4.67;;;13.70;46.60;;;;;;5011381;28;20260;-40
2020/12/14 07:41:05;;;;;;;4.60;4.17;;;14.60;44.50;;;;;;5010231;28;20429;-40
2020/12/14 07:43:40;;;;;;;4.27;3.77;;;15.40;42.70;;;;;;5010945;28;20856;-40
2020/12/14 07:46:19;;;;;;;4.60;4.20;;;15.80;42.30;;;;;;5010445;28;20483;-40
2020/12/14 07:48:54;;;;;;;4.40;4.00;;;16.70;40.80;;;;;;5008223;28;20473;-40
2020/12/14 07:51:20;;;;;;;5.17;4.30;;;17.30;39.00;;;;;;5010423;28;20456;-40
2020/12/14 07:53:49;;;;;;;5.60;4.73;;;17.60;38.20;;;;;;5010322;28;20436;-40
2020/12/14 07:56:14;;;;;;;5.43;4.60;;;17.40;38.50;;;;;;5008648;28;20650;-40
2020/12/14 07:58:49;;;;;;;5.60;5.00;;;16.90;39.10;;;;;;5007020;28;20433;-40
2020/12/14 08:01:18;;;;;;;5.80;5.30;;;16.00;40.30;;;;;;5007793;28;20209;-40
2020/12/14 08:03:48;;;;;;;5.70;5.10;;;15.10;42.00;;;;;;5010411;28;20499;-40
2020/12/14 08:06:18;;;;;;;5.60;5.00;;;14.30;43.70;;;;;;5008805;28;20854;-40
2020/12/14 08:08:49;;;;;;;5.00;4.50;;;13.40;45.40;;;;;;5009201;28;20523;-40
2020/12/14 08:11:19;;;;;;;5.90;4.87;;;12.40;47.20;;;;;;5008883;28;21292;-40
2020/12/14 08:13:50;;;;;;;4.20;3.80;;;11.50;49.30;;;;;;5000932;28;20469;-40
2020/12/14 08:16:19;;;;;;;4.90;4.17;;;11.20;51.00;;;;;;5010359;28;20454;-40
2020/12/14 08:18:47;;;;;;;5.10;4.60;;;11.20;51.50;;;;;;5010075;28;20433;-40
2020/12/14 08:21:24;;;;;;;4.63;4.23;;;10.90;52.00;;;;;;5009328;28;20450;-40
2020/12/14 08:23:51;;;;;;;4.90;4.47;;;10.50;53.10;;;;;;5010023;28;20425;-39
2020/12/14 08:26:24;;;;;;;4.60;4.17;;;10.50;53.70;;;;;;5008699;28;20441;-39
2020/12/14 08:28:59;;;;;;;5.13;4.37;;;10.30;54.20;;;;;;5010257;28;20435;-40
2020/12/14 08:31:25;;;;;;;4.90;4.30;;;10.30;54.20;;;;;;5009515;28;20958;-40
2020/12/14 08:33:53;;;;;;;5.53;4.00;;;10.10;54.40;;;;;;5016985;28;20524;-41
2020/12/14 08:36:19;;;;;;;4.83;4.33;;;10.20;54.90;;;;;;5009712;28;20514;-40
2020/12/14 08:38:46;;;;;;;4.97;4.50;;;9.90;56.30;;;;;;5009807;28;20437;-40
2020/12/14 08:41:13;;;;;;;4.40;4.00;;;9.60;57.30;;;;;;5009827;28;20450;-40
2020/12/14 08:43:39;;;;;;;6.07;4.30;;;9.60;57.60;;;;;;5013603;28;20518;-40
2020/12/14 08:46:09;;;;;;;5.13;4.33;;;9.70;57.80;;;;;;5013098;28;20429;-40
2020/12/14 08:48:48;;;;;;;8.53;4.73;;;9.80;58.20;;;;;;5019470;28;20506;-40
2020/12/14 08:51:17;;;;;;;5.97;5.37;;;9.80;57.50;;;;;;5012228;28;20604;-40
2020/12/14 08:53:44;;;;;;;5.77;4.63;;;9.70;57.90;;;;;;5011529;28;20432;-39
2020/12/14 08:56:16;;;;;;;5.47;4.93;;;9.60;58.00;;;;;;5017648;28;20480;-40
2020/12/14 08:58:50;;;;;;;5.97;5.37;;;9.60;58.40;;;;;;5012851;28;20445;-40
2020/12/14 09:01:17;;;;;;;6.50;5.33;;;9.80;58.50;;;;;;5017935;28;20903;-40
2020/12/14 09:03:54;;;;;;;6.10;5.33;;;9.90;57.70;;;;;;5011416;28;20440;-41
2020/12/14 09:06:31;;;;;;;6.03;5.30;;;9.90;57.80;;;;;;5009355;28;20945;-41
2020/12/14 09:09:10;;;;;;;6.03;5.30;;;9.90;57.50;;;;;;5009955;28;20450;-40
2020/12/14 09:11:48;;;;;;;5.53;4.20;;;10.00;56.80;;;;;;5012241;28;20962;-41
2020/12/14 09:14:26;;;;;;;4.77;4.33;;;10.00;56.90;;;;;;5015721;28;20531;-41
2020/12/14 09:16:58;;;;;;;5.70;4.70;;;10.10;57.20;;;;;;5031609;28;20514;-41
2020/12/14 09:19:29;;;;;;;5.90;5.30;;;10.30;57.10;;;;;;5013605;28;20519;-40
2020/12/14 09:21:55;;;;;;;7.97;5.17;;;10.40;56.40;;;;;;5010802;28;20504;-40
2020/12/14 09:24:26;;;;;;;6.90;4.90;;;10.40;56.50;;;;;;5008422;28;20500;-41
2020/12/14 09:26:54;;;;;;;5.73;5.13;;;10.70;56.50;;;;;;5011646;28;20449;-41
2020/12/14 09:29:20;;;;;;;6.60;5.30;;;10.90;55.90;;;;;;5012211;28;20465;-40
2020/12/14 09:31:54;;;;;;;5.10;4.60;;;10.90;55.30;;;;;;5011014;28;20951;-40
2020/12/14 09:34:20;;;;;;;6.60;5.20;;;11.00;55.20;;;;;;5013205;28;20289;-41
2020/12/14 09:36:53;;;;;;;5.20;4.70;;;11.00;55.50;;;;;;5012132;28;20433;-40
2020/12/14 09:39:20;;;;;;;7.30;5.83;;;11.40;55.10;;;;;;5012780;28;20441;-40
2020/12/14 09:41:45;;;;;;;5.33;4.83;;;12.00;54.50;;;;;;5012747;28;20433;-41
2020/12/14 09:44:11;;;;;;;5.53;4.93;;;12.20;53.50;;;;;;5012550;28;20451;-40
2020/12/14 09:46:37;;;;;;;5.90;5.40;;;12.20;52.40;;;;;;5012140;28;20921;-41
2020/12/14 09:49:03;;;;;;;5.40;4.80;;;12.20;52.60;;;;;;5010692;28;20230;-41
2020/12/14 09:51:29;;;;;;;5.30;4.83;;;12.40;51.90;;;;;;5011894;28;20198;-41
2020/12/14 09:53:56;;;;;;;4.93;4.33;;;12.60;51.90;;;;;;5011548;28;20528;-41
2020/12/14 09:56:22;;;;;;;5.70;4.93;;;12.80;51.30;;;;;;5011842;28;20483;-41
2020/12/14 09:58:47;;;;;;;5.80;5.20;;;12.70;51.10;;;;;;5012695;28;20936;-41
2020/12/14 10:01:13;;;;;;;5.60;5.03;;;12.40;51.60;;;;;;5011756;28;20198;-41
2020/12/14 10:03:39;;;;;;;6.70;5.43;;;12.40;52.10;;;;;;5011758;28;20709;-41
2020/12/14 10:06:04;;;;;;;5.97;5.37;;;12.80;51.60;;;;;;5011939;28;20276;-41
2020/12/14 10:08:30;;;;;;;6.23;5.73;;;13.00;51.40;;;;;;5011410;28;20660;-41
2020/12/14 10:10:56;;;;;;;9.53;6.50;;;13.40;50.50;;;;;;5009645;28;20257;-41
2020/12/14 10:13:25;;;;;;;6.10;5.00;;;13.10;50.10;;;;;;5011884;28;20656;-41
2020/12/14 10:15:52;;;;;;;7.23;5.37;;;12.70;50.70;;;;;;5009447;28;20765;-41
2020/12/14 10:18:18;;;;;;;4.73;4.33;;;13.00;51.30;;;;;;5011596;28;20441;-41
2020/12/14 10:20:44;;;;;;;5.60;5.00;;;13.20;51.00;;;;;;5011235;28;20444;-41
2020/12/14 10:23:10;;;;;;;4.70;4.30;;;13.20;50.20;;;;;;4999728;28;20457;-41
2020/12/14 10:25:37;;;;;;;6.50;5.50;;;13.20;50.30;;;;;;5006893;28;20472;-41
2020/12/14 10:28:03;;;;;;;5.87;5.27;;;12.70;50.90;;;;;;4998100;28;20524;-41
2020/12/14 10:30:29;;;;;;;5.97;5.23;;;12.50;51.10;;;;;;5010080;28;20535;-40
2020/12/14 10:32:55;;;;;;;6.63;5.77;;;12.10;51.60;;;;;;5009598;28;20527;-40
2020/12/14 10:35:21;;;;;;;6.17;4.90;;;11.50;53.00;;;;;;5010672;28;20201;-42
2020/12/14 10:37:48;;;;;;;6.53;5.30;;;11.50;53.50;;;;;;5009816;28;20239;-40
2020/12/14 10:40:13;;;;;;;6.67;5.40;;;11.50;53.60;;;;;;5007346;28;20194;-40
2020/12/14 10:42:39;;;;;;;7.10;5.30;;;11.70;53.70;;;;;;5010574;28;20441;-40
2020/12/14 10:45:05;;;;;;;5.37;4.87;;;12.00;53.00;;;;;;5008676;28;20194;-40
2020/12/14 10:47:30;;;;;;;5.90;5.20;;;12.10;52.50;;;;;;5009833;28;20197;-40
2020/12/14 10:49:56;;;;;;;6.67;6.07;;;12.10;53.00;;;;;;5009426;28;20334;-40
2020/12/14 10:52:21;;;;;;;6.97;5.83;;;11.80;52.70;;;;;;5006489;28;20205;-40
2020/12/14 10:54:50;;;;;;;5.67;5.17;;;12.00;53.20;;;;;;5009576;28;20841;-40
2020/12/14 10:57:15;;;;;;;6.67;5.77;;;12.00;53.00;;;;;;5013088;28;20186;-40
2020/12/14 10:59:41;;;;;;;7.03;5.40;;;11.90;52.90;;;;;;5008151;28;20962;-40
2020/12/14 11:02:06;;;;;;;6.60;5.00;;;12.00;53.50;;;;;;5009734;28;20617;-40
2020/12/14 11:04:32;;;;;;;5.57;4.93;;;12.20;53.20;;;;;;5010635;28;20198;-40
2020/12/14 11:06:57;;;;;;;6.67;5.00;;;12.20;53.20;;;;;;5010262;28;20569;-40
2020/12/14 11:09:23;;;;;;;7.23;5.17;;;12.10;53.10;;;;;;5010015;28;20674;-40
2020/12/14 11:11:49;;;;;;;7.17;5.17;;;12.00;53.40;;;;;;5007704;28;20559;-40
2020/12/14 11:14:14;;;;;;;5.40;4.87;;;12.00;53.40;;;;;;5010211;28;20200;-40
2020/12/14 11:16:42;;;;;;;5.40;4.90;;;12.00;53.50;;;;;;5009997;28;20197;-40
2020/12/14 11:19:08;;;;;;;7.77;6.93;;;11.90;53.60;;;;;;5009541;28;20593;-40
2020/12/14 11:21:33;;;;;;;6.13;5.53;;;11.90;53.90;;;;;;5010050;28;20472;-40
2020/12/14 11:23:59;;;;;;;6.40;5.80;;;11.90;54.20;;;;;;5010977;28;20204;-40
2020/12/14 11:26:25;;;;;;;7.17;5.27;;;12.10;53.70;;;;;;5009759;28;20905;-40
2020/12/14 11:28:50;;;;;;;8.07;5.60;;;12.00;53.80;;;;;;5010474;28;20244;-40
2020/12/14 11:31:19;;;;;;;8.13;6.27;;;12.20;53.50;;;;;;5008838;28;20234;-40
2020/12/14 11:33:45;;;;;;;5.90;5.30;;;12.20;53.30;;;;;;5009890;28;20205;-40
2020/12/14 11:36:11;;;;;;;7.00;5.73;;;12.20;53.50;;;;;;5008450;28;20433;-41
2020/12/14 11:38:37;;;;;;;8.57;6.77;;;12.30;53.60;;;;;;5010353;28;20448;-40
2020/12/14 11:41:03;;;;;;;6.07;5.20;;;12.30;53.30;;;;;;5007609;28;20622;-40
2020/12/14 11:43:29;;;;;;;6.73;6.13;;;12.20;53.00;;;;;;5002292;28;20575;-40
2020/12/14 11:45:54;;;;;;;5.63;5.03;;;12.10;53.50;;;;;;5006969;28;20265;-40
2020/12/14 11:48:20;;;;;;;5.90;5.13;;;12.30;53.40;;;;;;5006166;28;20238;-40
2020/12/14 11:50:45;;;;;;;6.37;5.47;;;12.30;53.00;;;;;;5008343;28;20597;-44
2020/12/14 11:53:11;;;;;;;6.90;5.20;;;12.30;53.20;;;;;;5009308;28;20217;-40
2020/12/14 11:55:38;;;;;;;6.10;5.50;;;12.30;53.50;;;;;;5009983;28;20270;-40
2020/12/14 11:58:04;;;;;;;6.73;5.33;;;12.30;53.70;;;;;;5009081;28;20202;-40
2020/12/14 12:00:30;;;;;;;6.20;5.60;;;12.10;54.10;;;;;;5009294;28;20432;-40
2020/12/14 12:02:55;;;;;;;5.10;4.60;;;12.10;54.10;;;;;;5009770;28;20502;-40
2020/12/14 12:05:21;;;;;;;7.20;6.50;;;12.20;53.90;;;;;;5010029;28;20201;-40
2020/12/14 12:07:47;;;;;;;6.73;4.87;;;12.30;53.50;;;;;;5007090;28;20198;-40
2020/12/14 12:10:13;;;;;;;6.50;5.50;;;12.20;53.50;;;;;;5009385;28;20538;-40
2020/12/14 12:12:39;;;;;;;9.30;6.00;;;12.30;53.80;;;;;;5009926;28;20200;-40
2020/12/14 12:15:05;;;;;;;7.20;6.07;;;12.30;53.80;;;;;;5010229;28;20456;-40
2020/12/14 12:17:30;;;;;;;5.60;5.00;;;11.90;54.60;;;;;;5003531;28;20256;-40
2020/12/14 12:19:56;;;;;;;6.63;5.80;;;12.10;54.70;;;;;;5013102;28;20444;-40
2020/12/14 12:22:21;;;;;;;7.53;6.17;;;12.20;54.20;;;;;;5007747;28;20218;-39
2020/12/14 12:24:47;;;;;;;6.47;5.77;;;12.10;54.60;;;;;;5012754;28;20197;-40
2020/12/14 12:27:13;;;;;;;7.60;5.87;;;12.10;55.00;;;;;;5009108;28;20556;-40
2020/12/14 12:29:39;;;;;;;7.20;5.80;;;12.20;55.30;;;;;;5012794;28;20233;-40
2020/12/14 12:32:05;;;;;;;6.40;5.63;;;12.70;54.80;;;;;;5017313;28;20236;-40
2020/12/14 12:34:31;;;;;;;4.17;2.70;;;13.00;53.90;;;;;;5014056;28;20928;-41
2020/12/14 12:36:58;;;;;;;4.57;4.17;;;13.30;57.20;;;;;;5011285;28;20202;-41
2020/12/14 12:39:24;;;;;;;7.83;3.30;;;13.90;55.60;;;;;;5012744;28;20436;-41
2020/12/14 12:41:52;;;;;;;3.33;3.03;;;14.60;54.10;;;;;;5012540;28;20433;-40
2020/12/14 12:44:19;;;;;;;6.10;4.57;;;15.20;53.00;;;;;;5009059;28;20499;-41
2020/12/14 12:46:45;;;;;;;6.07;5.47;;;15.60;50.00;;;;;;5009501;28;20429;-41
2020/12/14 12:49:11;;;;;;;4.50;3.87;;;15.90;50.50;;;;;;5010712;28;20808;-41
2020/12/14 12:51:36;;;;;;;5.80;4.10;;;16.10;48.70;;;;;;5009501;28;20760;-41
2020/12/14 12:54:03;;;;;;;3.80;3.23;;;16.20;49.50;;;;;;5012012;28;20501;-41